Time;durP1;ratioP1;P1;durP2;ratioP2;P2;SDS_P1;SDS_P2;PMS_P1;PMS_P2;Temp;Humidity;BMP_temperature;BMP_pressure;BME280_temperature;BME280_humidity;BME280_pressure;Samples;Min_cycle;Max_cycle;Signal;HPM_P1;HPM_P2
2023/10/21 00:01:48;;;;;;;1999.90;999.90;;;;;;;11.32;100.00;92695.28;5067229;28;20177;-54
2023/10/21 00:04:14;;;;;;;1999.90;999.90;;;;;;;11.29;100.00;92690.03;5066985;28;20382;-54
2023/10/21 00:06:40;;;;;;;1999.90;999.90;;;;;;;11.25;100.00;92687.47;5066420;28;20168;-53
2023/10/21 00:09:05;;;;;;;1999.90;999.90;;;;;;;11.22;100.00;92696.63;5066421;28;20215;-51
2023/10/21 00:11:31;;;;;;;1999.90;999.90;;;;;;;11.20;100.00;92695.59;5066359;28;20174;-54
2023/10/21 00:13:57;;;;;;;1999.90;999.90;;;;;;;11.22;100.00;92684.94;5066246;28;20349;-53
2023/10/21 00:16:22;;;;;;;1999.90;999.90;;;;;;;11.18;100.00;92678.94;5066310;28;20177;-50
2023/10/21 00:18:48;;;;;;;1999.90;999.90;;;;;;;11.14;100.00;92668.19;5066697;28;20176;-54
2023/10/21 00:21:13;;;;;;;1999.90;999.90;;;;;;;11.16;100.00;92673.19;5066154;28;20208;-54
2023/10/21 00:23:39;;;;;;;1999.90;999.90;;;;;;;11.13;100.00;92676.84;5065457;28;20172;-51
2023/10/21 00:26:04;;;;;;;1999.90;999.90;;;;;;;11.09;100.00;92682.53;5066164;28;20176;-52
2023/10/21 00:28:29;;;;;;;1999.90;999.90;;;;;;;11.07;100.00;92684.22;5065906;28;20369;-55
2023/10/21 00:30:55;;;;;;;1999.90;999.90;;;;;;;11.02;100.00;92684.88;5066026;28;20198;-55
2023/10/21 00:33:20;;;;;;;1999.90;999.90;;;;;;;11.00;100.00;92690.06;5068630;28;20180;-51
2023/10/21 00:35:46;;;;;;;1999.90;999.90;;;;;;;10.96;100.00;92686.78;5069697;28;20461;-55
2023/10/21 00:38:12;;;;;;;1999.90;999.90;;;;;;;10.92;100.00;92691.66;5069039;28;20187;-53
2023/10/21 00:40:37;;;;;;;1999.90;999.90;;;;;;;10.88;100.00;92688.34;5069142;28;20206;-52
2023/10/21 00:43:03;;;;;;;1999.90;999.90;;;;;;;10.86;100.00;92680.66;5069077;28;20183;-54
2023/10/21 00:45:28;;;;;;;1999.90;999.90;;;;;;;10.83;100.00;92686.28;5069108;28;20272;-52
2023/10/21 00:47:54;;;;;;;1999.90;999.90;;;;;;;10.79;100.00;92702.88;5068608;28;20247;-53
2023/10/21 00:50:20;;;;;;;1999.90;999.90;;;;;;;10.76;100.00;92703.81;5068994;28;20209;-51
2023/10/21 00:52:49;;;;;;;1999.90;999.90;;;;;;;10.74;100.00;92700.03;5069321;28;20211;-52
2023/10/21 00:55:15;;;;;;;1999.90;999.90;;;;;;;10.70;100.00;92694.75;5068779;28;20230;-50
2023/10/21 00:57:40;;;;;;;1999.90;999.90;;;;;;;10.70;100.00;92688.56;5069170;28;20180;-53
2023/10/21 01:00:11;;;;;;;1999.90;999.90;;;;;;;10.68;100.00;92689.03;5068778;28;20230;-53
2023/10/21 01:02:38;;;;;;;1999.90;999.90;;;;;;;10.70;100.00;92688.56;5068496;28;20175;-52
2023/10/21 01:05:05;;;;;;;1999.90;999.90;;;;;;;10.70;100.00;92683.09;5069169;28;20174;-52
2023/10/21 01:07:34;;;;;;;1999.90;999.90;;;;;;;10.69;100.00;92687.03;5068498;28;20187;-52
2023/10/21 01:09:59;;;;;;;1999.90;999.90;;;;;;;10.70;100.00;92702.22;5069040;28;20189;-50
2023/10/21 01:12:24;;;;;;;1999.90;999.90;;;;;;;10.73;100.00;92703.97;5068510;28;20184;-52
2023/10/21 01:14:52;;;;;;;1999.90;999.90;;;;;;;10.76;100.00;92701.06;5068871;28;20240;-53
2023/10/21 01:17:17;;;;;;;1999.90;999.90;;;;;;;10.78;100.00;92706.06;5068396;28;20362;-54
2023/10/21 01:19:43;;;;;;;1999.90;999.90;;;;;;;10.83;100.00;92708.13;5068432;28;20184;-55
2023/10/21 01:22:08;;;;;;;1999.90;999.90;;;;;;;10.85;100.00;92711.88;5068816;28;20175;-55
2023/10/21 01:24:34;;;;;;;1999.90;999.90;;;;;;;10.88;100.00;92721.09;5068799;28;20471;-55
2023/10/21 01:26:59;;;;;;;1999.90;999.90;;;;;;;10.91;100.00;92733.81;5068201;28;20248;-51
2023/10/21 01:29:24;;;;;;;1999.90;999.90;;;;;;;10.93;100.00;92739.59;5069060;28;20172;-52
2023/10/21 01:31:50;;;;;;;1999.90;999.90;;;;;;;10.92;100.00;92752.47;5068073;28;20242;-51
2023/10/21 01:34:15;;;;;;;1999.90;999.90;;;;;;;10.93;100.00;92758.69;5067679;28;20303;-52
2023/10/21 01:36:40;;;;;;;1999.90;999.90;;;;;;;10.94;100.00;92771.13;5067544;28;20175;-51
2023/10/21 01:39:10;;;;;;;1999.90;999.90;;;;;;;10.97;100.00;92781.09;5068031;28;20206;-55
2023/10/21 01:41:37;;;;;;;1999.90;999.90;;;;;;;10.98;100.00;92796.25;5067933;28;20176;-55
2023/10/21 01:44:02;;;;;;;1999.90;999.90;;;;;;;11.01;100.00;92806.25;5068385;28;20175;-55
2023/10/21 01:46:27;;;;;;;1999.90;999.90;;;;;;;11.02;100.00;92813.22;5067876;28;20288;-52
2023/10/21 01:48:52;;;;;;;1999.90;999.90;;;;;;;11.03;100.00;92814.75;5067856;28;20187;-51
2023/10/21 01:51:18;;;;;;;1999.90;999.90;;;;;;;11.07;100.00;92831.69;5068352;28;20225;-51
2023/10/21 01:53:44;;;;;;;1999.90;999.90;;;;;;;11.12;100.00;92841.94;5067881;28;20252;-49
2023/10/21 01:56:09;;;;;;;1999.90;999.90;;;;;;;11.15;100.00;92843.75;5068087;28;20214;-55
2023/10/21 01:58:36;;;;;;;1999.90;999.90;;;;;;;11.15;100.00;92854.69;5068112;28;20449;-52
2023/10/21 02:01:11;;;;;;;1999.90;999.90;;;;;;;11.17;100.00;92879.53;5067604;28;20198;-50
2023/10/21 02:03:37;;;;;;;1999.90;999.90;;;;;;;11.21;100.00;92899.22;5067583;28;20199;-49
2023/10/21 02:06:06;;;;;;;1999.90;999.90;;;;;;;11.27;100.00;92916.50;5067522;28;20189;-52
2023/10/21 02:08:31;;;;;;;1999.90;999.90;;;;;;;11.31;100.00;92934.22;5067485;28;20526;-53
2023/10/21 02:10:57;;;;;;;1999.90;999.90;;;;;;;11.34;100.00;92938.75;5067424;28;20182;-49
2023/10/21 02:13:23;;;;;;;1999.90;999.90;;;;;;;11.37;100.00;92953.44;5067423;28;20176;-50
2023/10/21 02:15:50;;;;;;;1999.90;999.90;;;;;;;11.40;100.00;92963.44;5067396;28;20208;-49
2023/10/21 02:18:15;;;;;;;1999.90;999.90;;;;;;;11.44;100.00;92985.88;5067343;28;20243;-47
2023/10/21 02:20:40;;;;;;;1999.90;999.90;;;;;;;11.45;100.00;92995.59;5067473;28;20173;-48
2023/10/21 02:23:06;;;;;;;1999.90;999.90;;;;;;;11.46;100.00;93005.28;5067822;28;20176;-52
2023/10/21 02:25:32;;;;;;;1999.90;999.90;;;;;;;11.47;100.00;93015.75;5067214;28;20172;-53
2023/10/21 02:27:57;;;;;;;1999.90;999.90;;;;;;;11.47;100.00;93017.75;5067300;28;20246;-52
2023/10/21 02:30:22;;;;;;;1999.90;999.90;;;;;;;11.46;100.00;93022.44;5067156;28;20195;-52
2023/10/21 02:32:51;;;;;;;1999.90;999.90;;;;;;;11.43;100.00;93028.84;5067216;28;20183;-53
2023/10/21 02:35:16;;;;;;;1999.90;999.90;;;;;;;11.41;100.00;93038.72;5063345;28;20225;-53
2023/10/21 02:37:42;;;;;;;1999.90;999.90;;;;;;;11.36;100.00;93051.06;5063844;28;20283;-52
2023/10/21 02:40:09;;;;;;;1999.90;999.90;;;;;;;11.29;100.00;93058.84;5064167;28;20246;-55
2023/10/21 02:42:34;;;;;;;1999.90;999.90;;;;;;;11.25;100.00;93071.94;5064209;28;20173;-55
2023/10/21 02:45:00;;;;;;;1999.90;999.90;;;;;;;11.18;100.00;93078.47;5063642;28;20202;-49
2023/10/21 02:47:25;;;;;;;1999.90;999.90;;;;;;;11.15;100.00;93078.66;5063403;28;20386;-47
2023/10/21 02:49:51;;;;;;;1999.90;999.90;;;;;;;11.10;100.00;93076.53;5063579;28;20222;-51
2023/10/21 02:52:16;;;;;;;1999.90;999.90;;;;;;;11.07;100.00;93074.75;5063643;28;20176;-51
2023/10/21 02:54:42;;;;;;;1999.90;999.90;;;;;;;11.07;100.00;93085.69;5063507;28;20201;-53
2023/10/21 02:57:07;;;;;;;1999.90;999.90;;;;;;;11.08;100.00;93092.66;5063677;28;20227;-50
2023/10/21 02:59:34;;;;;;;1999.90;999.90;;;;;;;11.10;100.00;93103.84;5063768;28;20198;-50
2023/10/21 03:01:59;;;;;;;1999.90;999.90;;;;;;;11.09;100.00;93113.28;5063500;28;20553;-52
2023/10/21 03:04:24;;;;;;;1999.90;999.90;;;;;;;11.17;100.00;93108.97;5063469;28;20177;-50
2023/10/21 03:06:50;;;;;;;1999.90;999.90;;;;;;;11.14;100.00;93124.31;5063551;28;20177;-51
2023/10/21 03:09:16;;;;;;;1999.90;999.90;;;;;;;11.14;100.00;93121.59;5064272;28;20173;-55
2023/10/21 03:11:42;;;;;;;1999.90;999.90;;;;;;;11.13;100.00;93125.56;5063404;28;20197;-50
2023/10/21 03:14:07;;;;;;;1999.90;999.90;;;;;;;11.11;100.00;93127.25;5063593;28;20204;-53
2023/10/21 03:16:32;;;;;;;1999.90;999.90;;;;;;;11.08;100.00;93131.66;5063363;28;20177;-58
2023/10/21 03:18:58;;;;;;;1999.90;999.90;;;;;;;11.06;100.00;93136.03;5063898;28;20185;-52
2023/10/21 03:21:23;;;;;;;1999.90;999.90;;;;;;;11.05;100.00;93131.81;5063625;28;20181;-52
2023/10/21 03:23:48;;;;;;;1999.90;999.90;;;;;;;11.01;100.00;93144.88;5064035;28;20237;-49
2023/10/21 03:26:14;;;;;;;1999.90;999.90;;;;;;;10.97;100.00;93144.28;5063364;28;20180;-48
2023/10/21 03:28:43;;;;;;;1999.90;999.90;;;;;;;10.92;100.00;93153.09;5063834;28;20466;-49
2023/10/21 03:31:09;;;;;;;1999.90;999.90;;;;;;;10.85;100.00;93154.16;5063785;28;20176;-49
2023/10/21 03:33:34;;;;;;;1999.90;999.90;;;;;;;10.81;100.00;93159.03;5063478;28;20291;-52
2023/10/21 03:36:01;;;;;;;1999.90;999.90;;;;;;;10.77;100.00;93157.66;5063387;28;20259;-50
2023/10/21 03:38:27;;;;;;;1999.90;999.90;;;;;;;10.75;100.00;93155.44;5063415;28;20293;-51
2023/10/21 03:41:02;;;;;;;1999.90;999.90;;;;;;;10.73;100.00;93157.06;5063659;28;20196;-53
2023/10/21 03:43:28;;;;;;;1999.90;999.90;;;;;;;10.70;100.00;93166.22;5063719;28;20181;-53
2023/10/21 03:45:54;;;;;;;1999.90;999.90;;;;;;;10.65;100.00;93166.81;5063164;28;20276;-53
2023/10/21 03:48:21;;;;;;;1999.90;999.90;;;;;;;10.62;100.00;93164.97;5063157;28;20190;-60
2023/10/21 03:50:47;;;;;;;1999.90;999.90;;;;;;;10.60;100.00;93172.88;5063636;28;20484;-51
2023/10/21 03:53:14;;;;;;;1999.90;999.90;;;;;;;10.60;100.00;93175.63;5063345;28;20197;-53
2023/10/21 03:55:41;;;;;;;1999.90;999.90;;;;;;;10.57;100.00;93171.06;5063610;28;20476;-50
2023/10/21 03:58:07;;;;;;;1999.90;999.90;;;;;;;10.60;100.00;93181.06;5063165;28;20217;-53
2023/10/21 04:00:32;;;;;;;1999.90;999.90;;;;;;;10.58;100.00;93178.78;5066340;28;20178;-53
2023/10/21 04:02:58;;;;;;;1999.90;999.90;;;;;;;10.61;100.00;93190.78;5066555;28;20243;-51
2023/10/21 04:05:23;;;;;;;1999.90;999.90;;;;;;;10.62;100.00;93167.72;5066586;28;20175;-54
2023/10/21 04:07:48;;;;;;;1999.90;999.90;;;;;;;10.67;100.00;93175.31;5066953;28;20181;-52
2023/10/21 04:10:14;;;;;;;1999.90;999.90;;;;;;;10.70;100.00;93163.47;5066849;28;20203;-51
2023/10/21 04:12:39;;;;;;;1999.90;999.90;;;;;;;10.78;100.00;93170.13;5066647;28;20239;-52
2023/10/21 04:15:08;;;;;;;1999.90;999.90;;;;;;;10.80;100.00;93178.59;5066268;28;20276;-51
2023/10/21 04:17:35;;;;;;;1999.90;999.90;;;;;;;10.84;100.00;93173.72;5066735;28;20204;-54
2023/10/21 04:20:00;;;;;;;1999.90;999.90;;;;;;;10.94;100.00;93186.16;5066390;28;20180;-54
2023/10/21 04:22:26;;;;;;;1999.90;999.90;;;;;;;10.88;100.00;93190.72;5066516;28;20247;-51
2023/10/21 04:24:51;;;;;;;1999.90;999.90;;;;;;;10.90;100.00;93193.75;5066669;28;20204;-55
2023/10/21 04:27:16;;;;;;;1999.90;999.90;;;;;;;10.87;100.00;93195.44;5066199;28;20203;-54
2023/10/21 04:29:42;;;;;;;1999.90;999.90;;;;;;;10.86;100.00;93204.84;5066022;28;20178;-53
2023/10/21 04:32:07;;;;;;;1999.90;999.90;;;;;;;10.89;100.00;93214.09;5066190;28;20181;-49
2023/10/21 04:34:33;;;;;;;1999.90;999.90;;;;;;;10.88;100.00;93215.28;5065933;28;20228;-53
2023/10/21 04:36:58;;;;;;;1999.90;999.90;;;;;;;10.89;100.00;93219.56;5066452;28;20185;-56
2023/10/21 04:39:24;;;;;;;1999.90;999.90;;;;;;;10.93;100.00;93215.41;5065711;28;20364;-52
2023/10/21 04:41:49;;;;;;;1999.90;999.90;;;;;;;10.96;100.00;93216.50;5066609;28;20181;-51
2023/10/21 04:44:15;;;;;;;1999.90;999.90;;;;;;;10.99;100.00;93229.22;5066329;28;20184;-51
2023/10/21 04:46:40;;;;;;;1999.90;999.90;;;;;;;11.03;100.00;93218.91;5066297;28;20188;-51
2023/10/21 04:49:05;;;;;;;1999.90;999.90;;;;;;;11.06;100.00;93226.16;5066226;28;20212;-53
2023/10/21 04:51:31;;;;;;;1999.90;999.90;;;;;;;11.05;100.00;93227.41;5066134;28;20182;-53
2023/10/21 04:53:57;;;;;;;1999.90;999.90;;;;;;;11.06;100.00;93228.91;5065529;28;20181;-53
2023/10/21 04:56:24;;;;;;;1999.90;999.90;;;;;;;11.07;100.00;93230.44;5066097;28;20378;-53
2023/10/21 04:58:49;;;;;;;1999.90;999.90;;;;;;;11.08;100.00;93237.41;5065444;28;20174;-52
2023/10/21 05:01:16;;;;;;;1999.90;999.90;;;;;;;11.09;100.00;93249.84;5065535;28;20219;-51
2023/10/21 05:03:43;;;;;;;1999.90;999.90;;;;;;;11.08;100.00;93253.78;5065936;28;20327;-53
2023/10/21 05:06:08;;;;;;;1999.90;999.90;;;;;;;11.08;100.00;93245.59;5065890;28;20248;-55
2023/10/21 05:08:34;;;;;;;1999.90;999.90;;;;;;;11.09;100.00;93255.31;5065303;28;20187;-51
2023/10/21 05:10:59;;;;;;;1999.90;999.90;;;;;;;11.08;100.00;93253.78;5065670;28;20208;-54
2023/10/21 05:13:25;;;;;;;1999.90;999.90;;;;;;;11.07;100.00;93263.22;5065224;28;20252;-55
2023/10/21 05:15:50;;;;;;;1999.90;999.90;;;;;;;11.02;100.00;93266.53;5065114;28;20220;-56
2023/10/21 05:18:16;;;;;;;1999.90;999.90;;;;;;;10.94;100.00;93268.06;5065944;28;20177;-53
2023/10/21 05:20:42;;;;;;;1999.90;999.90;;;;;;;10.87;100.00;93276.56;5065026;28;20467;-54
2023/10/21 05:23:08;;;;;;;1999.90;999.90;;;;;;;10.80;100.00;93271.41;5065009;28;20183;-54
2023/10/21 05:25:33;;;;;;;1999.90;999.90;;;;;;;10.78;100.00;93271.13;5065030;28;20167;-54
2023/10/21 05:27:58;;;;;;;1999.90;999.90;;;;;;;10.76;100.00;93259.91;5064962;28;20238;-52
2023/10/21 05:30:24;;;;;;;1999.90;999.90;;;;;;;10.71;100.00;93252.31;5065128;28;20196;-54
2023/10/21 05:32:49;;;;;;;1999.90;999.90;;;;;;;10.68;100.00;93247.78;5065261;28;20172;-53
2023/10/21 05:35:15;;;;;;;1999.90;999.90;;;;;;;10.62;100.00;93238.69;5064854;28;20231;-55
2023/10/21 05:37:41;;;;;;;1999.90;999.90;;;;;;;10.58;100.00;93232.63;5065172;28;20262;-52
2023/10/21 05:40:07;;;;;;;1999.90;999.90;;;;;;;10.53;100.00;93239.47;5064817;28;20405;-54
2023/10/21 05:42:33;;;;;;;1999.90;999.90;;;;;;;10.52;100.00;93239.91;5065468;28;20240;-50
2023/10/21 05:44:58;;;;;;;1999.90;999.90;;;;;;;10.49;100.00;93244.28;5064577;28;20178;-51
2023/10/21 05:47:23;;;;;;;1999.90;999.90;;;;;;;10.51;100.00;93236.41;5064800;28;20183;-53
2023/10/21 05:49:49;;;;;;;1999.90;999.90;;;;;;;10.57;100.00;93222.91;5064545;28;20250;-54
2023/10/21 05:52:17;;;;;;;1999.90;999.90;;;;;;;10.67;100.00;93218.97;5064490;28;20173;-52
2023/10/21 05:54:42;;;;;;;1999.90;999.90;;;;;;;10.79;100.00;93209.84;5064347;28;20198;-51
2023/10/21 05:57:07;;;;;;;1999.90;999.90;;;;;;;10.95;100.00;93206.78;5064345;28;20227;-52
2023/10/21 05:59:33;;;;;;;1999.90;999.90;;;;;;;10.96;100.00;93209.06;5064902;28;20214;-53
2023/10/21 06:01:58;;;;;;;1999.90;999.90;;;;;;;11.02;100.00;93229.06;5064734;28;20189;-52
2023/10/21 06:04:24;;;;;;;1999.90;999.90;;;;;;;11.09;100.00;93230.72;5064327;28;20215;-53
2023/10/21 06:06:54;;;;;;;1999.90;999.90;;;;;;;11.14;100.00;93255.44;5064143;28;20183;-53
2023/10/21 06:09:20;;;;;;;1999.90;999.90;;;;;;;11.24;100.00;93272.56;5064260;28;20187;-53
2023/10/21 06:11:45;;;;;;;1999.90;999.90;;;;;;;11.29;100.00;93282.91;5064406;28;20172;-49
2023/10/21 06:14:10;;;;;;;1999.90;999.90;;;;;;;11.37;100.00;93297.75;5064097;28;20177;-54
2023/10/21 06:16:35;;;;;;;1999.90;999.90;;;;;;;11.51;100.00;93305.31;5064615;28;20180;-51
2023/10/21 06:19:01;;;;;;;1999.90;999.90;;;;;;;11.58;100.00;93326.84;5064051;28;20182;-55
2023/10/21 06:21:26;;;;;;;1999.90;999.90;;;;;;;11.72;100.00;93345.34;5063629;28;20196;-54
2023/10/21 06:23:51;;;;;;;1999.90;999.90;;;;;;;11.88;100.00;93364.16;5063963;28;20227;-55
2023/10/21 06:26:17;;;;;;;1999.90;999.90;;;;;;;12.88;100.00;93379.63;5064391;28;20184;-50
2023/10/21 06:28:42;;;;;;;1999.90;999.90;;;;;;;14.08;100.00;93444.75;5064696;28;20177;-52
2023/10/21 06:31:07;;;;;;;1999.90;999.90;;;;;;;14.62;100.00;93527.38;5064389;28;20243;-50
2023/10/21 06:33:34;;;;;;;1999.90;999.90;;;;;;;15.20;100.00;93582.28;5063999;28;20278;-50
2023/10/21 06:35:59;;;;;;;1999.90;999.90;;;;;;;16.02;100.00;93632.28;5064473;28;20197;-50
2023/10/21 06:38:24;;;;;;;1999.90;999.90;;;;;;;17.10;100.00;93667.63;5064164;28;20185;-53
2023/10/21 06:40:50;;;;;;;1999.90;999.90;;;;;;;17.48;100.00;93686.56;5063598;28;20197;-47
2023/10/21 06:43:15;;;;;;;1999.90;999.90;;;;;;;17.88;100.00;93683.63;5063812;28;20166;-51
2023/10/21 06:45:41;;;;;;;1999.90;999.90;;;;;;;18.45;100.00;93687.00;5063516;28;20181;-55
2023/10/21 06:48:06;;;;;;;1999.90;999.90;;;;;;;18.80;100.00;93690.19;5064200;28;20181;-50
2023/10/21 06:50:32;;;;;;;1999.90;999.90;;;;;;;19.49;100.00;93698.41;5063279;28;20181;-51
2023/10/21 06:52:57;;;;;;;1999.90;999.90;;;;;;;20.33;100.00;93704.72;5064220;28;20241;-56
2023/10/21 06:55:22;;;;;;;1999.90;999.90;;;;;;;20.84;100.00;93718.72;5063390;28;20190;-51
2023/10/21 06:57:50;;;;;;;1999.90;999.90;;;;;;;21.07;100.00;93728.50;5063548;28;20172;-50
2023/10/21 07:00:16;;;;;;;1999.90;999.90;;;;;;;19.53;100.00;93729.38;5063321;28;20170;-53
2023/10/21 07:02:41;;;;;;;1999.90;999.90;;;;;;;18.33;100.00;93741.47;5064055;28;20174;-55
2023/10/21 07:05:09;;;;;;;1999.90;999.90;;;;;;;19.14;100.00;93736.84;5063237;28;20181;-55
2023/10/21 07:07:37;;;;;;;1999.90;999.90;;;;;;;20.45;100.00;93745.81;5063811;28;20188;-56
2023/10/21 07:10:03;;;;;;;1999.90;999.90;;;;;;;21.63;100.00;93751.94;5064008;28;20208;-54
2023/10/21 07:12:28;;;;;;;1999.90;999.90;;;;;;;22.40;100.00;93761.75;5063451;28;20174;-51
2023/10/21 07:14:54;;;;;;;1999.90;999.90;;;;;;;22.78;100.00;93765.47;5063504;28;20209;-53
2023/10/21 07:17:19;;;;;;;1999.90;999.90;;;;;;;23.35;100.00;93770.69;5063262;28;20174;-51
2023/10/21 07:19:45;;;;;;;1999.90;999.90;;;;;;;23.58;100.00;93774.69;5063743;28;20192;-52
2023/10/21 07:22:10;;;;;;;1999.90;999.90;;;;;;;23.75;100.00;93769.66;5063364;28;20197;-50
2023/10/21 07:24:36;;;;;;;1999.90;999.90;;;;;;;23.82;100.00;93780.19;5063286;28;20231;-53
2023/10/21 07:27:04;;;;;;;1999.90;999.90;;;;;;;23.81;100.00;93770.31;5063178;28;20241;-54
2023/10/21 07:29:31;;;;;;;1999.90;999.90;;;;;;;24.18;100.00;93773.09;5063677;28;20174;-55
2023/10/21 07:31:56;;;;;;;1999.90;999.90;;;;;;;24.33;100.00;93784.53;5063202;28;20174;-56
2023/10/21 07:34:22;;;;;;;1999.90;999.90;;;;;;;24.40;100.00;93792.28;5065051;28;20228;-57
2023/10/21 07:36:47;;;;;;;1999.90;999.90;;;;;;;24.99;100.00;93795.34;5066930;28;20174;-58
2023/10/21 07:39:13;;;;;;;1999.90;999.90;;;;;;;24.63;100.00;93799.03;5066846;28;20194;-55
2023/10/21 07:41:38;;;;;;;1999.90;999.90;;;;;;;24.37;100.00;93784.97;5067014;28;20198;-59
2023/10/21 07:44:04;;;;;;;1999.90;999.90;;;;;;;24.07;100.00;93801.19;5067421;28;20170;-60
2023/10/21 07:46:29;;;;;;;1999.90;999.90;;;;;;;23.32;100.00;93791.22;5066962;28;20181;-60
2023/10/21 07:48:56;;;;;;;1999.90;999.90;;;;;;;23.48;100.00;93784.69;5066723;28;20241;-59
2023/10/21 07:51:22;;;;;;;1999.90;999.90;;;;;;;23.49;100.00;93786.94;5066911;28;20216;-56
2023/10/21 07:53:48;;;;;;;1999.90;999.90;;;;;;;23.45;100.00;93782.97;5066912;28;20173;-55
2023/10/21 07:56:13;;;;;;;1999.90;999.90;;;;;;;23.39;100.00;93790.66;5067145;28;20205;-54
2023/10/21 07:58:41;;;;;;;1999.90;999.90;;;;;;;23.47;100.00;93799.91;5067077;28;20200;-57
2023/10/21 08:01:06;;;;;;;1999.90;999.90;;;;;;;23.70;100.00;93801.91;5066693;28;20174;-60
2023/10/21 08:03:34;;;;;;;1999.90;999.90;;;;;;;24.34;100.00;93803.53;5067275;28;20223;-56
2023/10/21 08:06:00;;;;;;;1999.90;999.90;;;;;;;24.47;100.00;93814.00;5066993;28;20176;-57
2023/10/21 08:08:25;;;;;;;1999.90;999.90;;;;;;;25.17;100.00;93821.72;5066403;28;20197;-57
2023/10/21 08:10:51;;;;;;;1999.90;999.90;;;;;;;25.39;100.00;93812.94;5066522;28;20170;-55
2023/10/21 08:13:16;;;;;;;1999.90;999.90;;;;;;;25.42;100.00;93814.63;5066316;28;20174;-54
2023/10/21 08:15:41;;;;;;;1999.90;999.90;;;;;;;25.95;98.12;93812.53;5066836;28;20221;-57
2023/10/21 08:18:07;;;;;;;1999.90;999.90;;;;;;;25.49;96.17;93822.38;5066401;28;20170;-56
2023/10/21 08:20:32;;;;;;;1999.90;999.90;;;;;;;25.26;98.79;93815.69;5066433;28;20174;-56
2023/10/21 08:22:58;;;;;;;1999.90;999.90;;;;;;;26.18;99.70;93816.38;5066070;28;20171;-56
2023/10/21 08:25:24;;;;;;;1999.90;999.90;;;;;;;26.27;92.10;93819.47;5066903;28;20204;-56
2023/10/21 08:27:49;;;;;;;1999.90;999.90;;;;;;;25.95;93.90;93818.91;5066437;28;20170;-55
2023/10/21 08:30:15;;;;;;;1999.90;999.90;;;;;;;26.83;90.59;93825.28;5066027;28;20174;-56
2023/10/21 08:32:40;;;;;;;1999.90;999.90;;;;;;;25.77;91.59;93830.19;5066020;28;20170;-55
2023/10/21 08:35:06;;;;;;;1999.90;999.90;;;;;;;26.24;94.60;93828.97;5065822;28;20240;-52
2023/10/21 08:37:31;;;;;;;1999.90;999.90;;;;;;;26.34;91.57;93835.59;5065713;28;20242;-55
2023/10/21 08:39:57;;;;;;;1999.90;999.90;;;;;;;27.08;87.69;93826.44;5065672;28;20197;-55
2023/10/21 08:42:25;;;;;;;1999.90;999.90;;;;;;;27.96;83.78;93829.66;5065758;28;20261;-54
2023/10/21 08:44:55;;;;;;;1999.90;999.90;;;;;;;27.88;77.68;93839.34;5066014;28;20182;-55
2023/10/21 08:47:21;;;;;;;1999.90;999.90;;;;;;;27.15;80.08;93850.97;5066196;28;20188;-55
2023/10/21 08:49:48;;;;;;;1999.90;999.90;;;;;;;26.32;85.84;93848.63;5066075;28;20201;-53
2023/10/21 08:52:14;;;;;;;1999.90;999.90;;;;;;;26.09;89.44;93850.41;5065934;28;20170;-54
2023/10/21 08:54:42;;;;;;;1999.90;999.90;;;;;;;26.72;87.22;93850.78;5065371;28;20224;-51
2023/10/21 08:57:09;;;;;;;1999.90;999.90;;;;;;;27.03;81.91;93865.81;5065483;28;20170;-53
2023/10/21 08:59:35;;;;;;;1999.90;999.90;;;;;;;26.47;86.26;93866.34;5065473;28;20170;-50
2023/10/21 09:02:01;;;;;;;1999.90;999.90;;;;;;;26.56;87.21;93873.53;5065716;28;20192;-54
2023/10/21 09:04:28;;;;;;;1999.90;999.90;;;;;;;26.52;86.54;93873.91;5065412;28;20174;-54
2023/10/21 09:06:56;;;;;;;1999.90;999.90;;;;;;;26.86;90.27;93877.44;5065274;28;20174;-53
2023/10/21 09:09:23;;;;;;;1999.90;999.90;;;;;;;26.97;84.41;93879.97;5065305;28;20170;-54
2023/10/21 09:12:02;;;;;;;1999.90;999.90;;;;;;;26.91;81.86;93879.34;5065677;28;20177;-55
2023/10/21 09:14:29;;;;;;;1999.90;999.90;;;;;;;27.21;81.01;93874.03;5065549;28;20185;-54
2023/10/21 09:16:56;;;;;;;1999.90;999.90;;;;;;;26.51;84.70;93872.38;5065094;28;20219;-53
2023/10/21 09:19:28;;;;;;;1999.90;999.90;;;;;;;26.13;89.75;93881.63;5065024;28;20166;-52
2023/10/21 09:21:53;;;;;;;1999.90;999.90;;;;;;;26.69;85.80;93882.69;5065520;28;20166;-50
2023/10/21 09:24:23;;;;;;;1999.90;999.90;;;;;;;26.65;83.93;93879.47;5064994;28;20194;-50
2023/10/21 09:26:49;;;;;;;1999.90;999.90;;;;;;;26.42;85.88;93892.44;5064899;28;20176;-52
2023/10/21 09:29:18;;;;;;;1999.90;999.90;;;;;;;26.83;81.92;93891.78;5064852;28;20174;-53
2023/10/21 09:31:51;;;;;;;1999.90;999.90;;;;;;;26.04;88.80;93896.81;5064737;28;20174;-52
2023/10/21 09:34:27;;;;;;;1999.90;999.90;;;;;;;26.15;88.90;93890.97;5064759;28;20218;-51
2023/10/21 09:36:57;;;;;;;1999.90;999.90;;;;;;;25.91;92.56;93887.66;5065123;28;20165;-55
2023/10/21 09:39:25;;;;;;;1999.90;999.90;;;;;;;25.71;93.75;93886.25;5064632;28;20193;-52
2023/10/21 09:41:50;;;;;;;1999.90;999.90;;;;;;;25.96;91.17;93895.97;5064585;28;20188;-53
2023/10/21 09:44:17;;;;;;;1999.90;999.90;;;;;;;26.47;88.34;93894.38;5065097;28;20165;-52
2023/10/21 09:46:44;;;;;;;1999.90;999.90;;;;;;;26.84;86.64;93899.63;5064478;28;20245;-52
2023/10/21 09:49:12;;;;;;;1999.90;999.90;;;;;;;26.36;87.06;93893.88;5064749;28;20165;-52
2023/10/21 09:51:45;;;;;;;1999.90;999.90;;;;;;;25.79;91.21;93889.94;5064066;28;20166;-54
2023/10/21 09:54:13;;;;;;;1999.90;999.90;;;;;;;25.31;95.66;93895.91;5064877;28;20170;-54
2023/10/21 09:56:39;;;;;;;1999.90;999.90;;;;;;;27.02;84.56;93909.91;5063518;28;20173;-53
2023/10/21 09:59:06;;;;;;;1999.90;999.90;;;;;;;28.90;71.41;93902.69;5064994;28;20166;-53
2023/10/21 10:01:33;;;;;;;1999.90;999.90;;;;;;;29.03;69.81;93904.59;5064656;28;20241;-51
2023/10/21 10:04:01;;;;;;;1999.90;999.90;;;;;;;28.60;68.40;93921.50;5064643;28;20169;-54
2023/10/21 10:06:28;;;;;;;1999.90;999.90;;;;;;;29.10;68.24;93917.94;5064740;28;20170;-52
2023/10/21 10:08:53;;;;;;;1999.90;999.90;;;;;;;26.75;80.70;93907.78;5063973;28;20166;-51
2023/10/21 10:11:20;;;;;;;1999.90;999.90;;;;;;;25.58;92.03;93911.44;5064101;28;20212;-54
2023/10/21 10:13:49;;;;;;;1999.90;999.90;;;;;;;24.35;100.00;93904.78;5064056;28;20166;-53
2023/10/21 10:16:19;;;;;;;1999.90;999.90;;;;;;;22.83;100.00;93901.09;5063856;28;20193;-52
2023/10/21 10:18:50;;;;;;;1999.90;999.90;;;;;;;22.45;100.00;93903.63;5063904;28;20537;-53
2023/10/21 10:21:18;;;;;;;1999.90;999.90;;;;;;;21.87;100.00;93893.84;5064457;28;20170;-53
2023/10/21 10:23:51;;;;;;;1999.90;999.90;;;;;;;21.26;100.00;93900.84;5064358;28;20249;-53
2023/10/21 10:26:37;;;;;;;1999.90;999.90;;;;;;;22.28;100.00;93900.19;5063636;28;20276;-54
2023/10/21 10:29:25;;;;;;;1999.90;999.90;;;;;;;21.41;100.00;93896.50;5063598;28;20174;-53
2023/10/21 10:32:10;;;;;;;1999.90;999.90;;;;;;;21.17;100.00;93899.13;5063768;28;20174;-52
2023/10/21 10:34:41;;;;;;;1999.90;999.90;;;;;;;21.05;100.00;93897.59;5063464;28;20221;-50
2023/10/21 10:37:32;;;;;;;1999.90;999.90;;;;;;;20.85;100.00;93895.09;5064187;28;20168;-53
2023/10/21 10:39:58;;;;;;;1999.90;999.90;;;;;;;20.59;100.00;93897.38;5063414;28;20231;-52
2023/10/21 10:42:31;;;;;;;1999.90;999.90;;;;;;;20.26;100.00;93893.78;5063879;28;20173;-55
2023/10/21 10:44:56;;;;;;;1999.90;999.90;;;;;;;20.06;100.00;93891.97;5063058;28;20170;-54